Galesburg, IL (61401)

6:24 AM CDT on July 30, 2016 (GMT -0500)
N9VPV | | Change Station

Elev 777 ft 40.95 °N, 90.39 °W | Updated 1 minute ago

Overcast
Overcast
68.8 °F
Feels Like 68.8 °F
N
1.0
Wind Variable Wind from NW
Gusts 1.0 mph

Today
High -- | Low -- °F
--% Chance of Precip.
Yesterday
High -- | Low -- °F
Precip. -- in
Pressure 29.96 in
Visibility 2.0 miles
Clouds Scattered Clouds 300 ft
Mostly Cloudy 1800 ft
Overcast 3100 ft
Dew Point 67 °F
Humidity 93%
Rainfall 0.00 in
Snow Depth Not available.
5:56 AM 8:19 PM
Waning Crescent, 14% visible
METAR KGBG 301115Z AUTO 31003KT 2SM BR SCT003 BKN018 OVC031 20/19 A2996 RMK AO2 T01970192
Pressure 29.96 in
Visibility 2.0 miles
Clouds Scattered Clouds 300 ft
Mostly Cloudy 1800 ft
Overcast 3100 ft
Dew Point 67 °F
Humidity 93%
Rainfall 0.00 in
Snow Depth Not available.
5:56 AM 8:19 PM
Waning Crescent, 14% visible
METAR KGBG 301115Z AUTO 31003KT 2SM BR SCT003 BKN018 OVC031 20/19 A2996 RMK AO2 T01970192

10-Day Weather Forecast

Almanac

Astronomy

Jul. 30, 2016 Rise Set
Actual Time
Civil Twilight
Nautical Twilight
Astronomical Twilight
Moon
Length of Visible Light
Length of Day
Tomorrow will be .
, % of the Moon is Illuminated

Today's Extremes

State Highs State Lows

Community

WunderPhotos

Upload Photos

1,928,530 photos uploaded!

WunderBlog® & News

Nearby

Air Quality

  Air Quality AQ Index Pollutant
Not available.

Snow Depth

Station Depth Elevation

Earthquake Activity

City Distance Mag. Time & Date
Minimum magnitude displayed is 2.5.

Coastal Water Temperatures

Place Temperature

Stations

Nearby Weather Stations

Station Location Temp. Windchill Dew Point Humidity Wind Precip. Elev Updated Type
                   

Watches & Warnings

There are currently no watches in effect.